createdAt,value
2022-10-18T00:00:11.277Z,5.77
2022-10-18T00:01:09.503Z,5.53
2022-10-18T00:02:06.861Z,5.81
2022-10-18T00:03:04.203Z,6.16
2022-10-18T00:04:01.636Z,5.70
2022-10-18T00:04:59.001Z,5.48
2022-10-18T00:05:58.267Z,5.52
2022-10-18T00:06:58.023Z,5.51
2022-10-18T00:07:56.331Z,5.96
2022-10-18T00:08:53.692Z,6.29
2022-10-18T00:09:51.029Z,5.74
2022-10-18T00:10:48.803Z,5.68
2022-10-18T00:11:50.366Z,5.65
2022-10-18T00:12:47.819Z,5.92
2022-10-18T00:13:45.169Z,5.78
2022-10-18T00:14:42.511Z,6.45
2022-10-18T00:15:39.856Z,6.47
2022-10-18T00:16:37.237Z,6.61
2022-10-18T00:17:35.722Z,6.86
2022-10-18T00:18:33.024Z,7.01
2022-10-18T00:19:30.306Z,6.63
2022-10-18T00:20:27.674Z,6.47
2022-10-18T00:21:25.866Z,6.05
2022-10-18T00:22:23.170Z,6.40
2022-10-18T00:23:20.546Z,6.31
2022-10-18T00:24:17.964Z,6.76
2022-10-18T00:25:15.449Z,6.82
2022-10-18T00:26:14.450Z,7.17
2022-10-18T00:27:11.795Z,6.47
2022-10-18T00:28:09.075Z,7.03
2022-10-18T00:29:06.871Z,7.01
2022-10-18T00:30:04.658Z,6.88
2022-10-18T00:31:31.262Z,7.20
2022-10-18T00:32:28.890Z,6.95
2022-10-18T00:33:26.471Z,6.98
2022-10-18T00:34:23.896Z,6.89
2022-10-18T00:35:21.202Z,6.89
2022-10-18T00:36:19.572Z,6.19
2022-10-18T00:37:17.477Z,6.48
2022-10-18T00:38:14.812Z,6.77
2022-10-18T00:39:17.188Z,5.71
2022-10-18T00:40:14.462Z,5.96
2022-10-18T00:41:13.810Z,5.64
2022-10-18T00:42:16.986Z,6.79
2022-10-18T00:43:17.168Z,6.90
2022-10-18T00:44:17.248Z,6.57
2022-10-18T00:45:16.885Z,6.92
2022-10-18T00:46:14.178Z,6.56
2022-10-18T00:47:14.362Z,6.93
2022-10-18T00:48:13.655Z,6.29
2022-10-18T00:49:10.975Z,6.48
2022-10-18T00:50:09.237Z,6.82
2022-10-18T00:51:06.690Z,6.83
2022-10-18T00:52:06.825Z,7.16
2022-10-18T00:53:07.000Z,7.00
2022-10-18T00:54:04.823Z,6.92
2022-10-18T00:55:03.775Z,6.96
2022-10-18T00:56:01.176Z,7.05
2022-10-18T00:56:59.169Z,6.97
2022-10-18T00:57:57.761Z,7.06
2022-10-18T00:58:55.575Z,6.41
2022-10-18T00:59:53.791Z,6.43
2022-10-18T01:00:51.297Z,6.76
2022-10-18T01:01:48.648Z,6.51
2022-10-18T01:02:47.035Z,6.96
2022-10-18T01:03:44.587Z,6.77
2022-10-18T01:04:42.033Z,6.61
2022-10-18T01:05:42.980Z,6.75
2022-10-18T01:07:00.538Z,7.01
2022-10-18T01:08:09.795Z,6.50
2022-10-18T01:09:09.878Z,6.98
2022-10-18T01:10:25.876Z,7.10
2022-10-18T01:11:23.198Z,7.22
2022-10-18T01:12:29.360Z,7.29
2022-10-18T01:13:55.907Z,7.75
2022-10-18T01:15:00.536Z,7.74
2022-10-18T01:16:07.181Z,7.73
2022-10-18T01:17:23.026Z,7.97
2022-10-18T01:18:26.115Z,7.52
2022-10-18T01:19:38.438Z,7.77
2022-10-18T01:20:35.703Z,7.64
2022-10-18T01:21:46.208Z,8.01
2022-10-18T01:22:46.827Z,7.84
2022-10-18T01:23:44.073Z,8.32
2022-10-18T01:24:45.246Z,8.67
2022-10-18T01:26:00.606Z,8.07
2022-10-18T01:27:16.459Z,8.66
2022-10-18T01:28:13.838Z,8.29
2022-10-18T01:29:14.016Z,8.12
2022-10-18T01:30:29.955Z,8.36
2022-10-18T01:31:38.999Z,8.77
2022-10-18T01:32:42.869Z,9.28
2022-10-18T01:33:56.721Z,9.32
2022-10-18T01:34:59.846Z,8.64
2022-10-18T01:36:11.677Z,8.62
2022-10-18T01:37:14.836Z,8.54
2022-10-18T01:38:17.878Z,8.63
2022-10-18T01:39:22.471Z,7.98
2022-10-18T01:40:22.485Z,8.78
2022-10-18T01:41:23.327Z,9.13
2022-10-18T01:42:21.402Z,8.40
2022-10-18T01:43:21.290Z,8.61
2022-10-18T01:44:21.639Z,8.89
2022-10-18T01:45:21.026Z,9.61
2022-10-18T01:46:22.216Z,8.77
2022-10-18T01:47:20.396Z,9.46
2022-10-18T01:48:18.476Z,9.66
2022-10-18T01:49:15.800Z,9.27
2022-10-18T01:50:13.885Z,9.81
2022-10-18T01:51:11.539Z,9.71
2022-10-18T01:52:16.388Z,8.75
2022-10-18T01:53:30.638Z,7.86
2022-10-18T01:54:33.037Z,14.97
2022-10-18T01:55:42.598Z,19.51
2022-10-18T01:57:06.080Z,28.22
2022-10-18T01:58:09.006Z,25.51
2022-10-18T01:59:22.406Z,41.82
2022-10-18T02:00:24.726Z,24.45
2022-10-18T02:01:21.999Z,19.47
2022-10-18T02:02:32.232Z,20.83
2022-10-18T02:03:29.833Z,19.33
2022-10-18T02:04:45.209Z,22.45
2022-10-18T02:05:54.439Z,21.12
2022-10-18T02:06:57.614Z,20.83
2022-10-18T02:08:12.149Z,18.01
2022-10-18T02:09:29.681Z,18.66
2022-10-18T02:10:42.352Z,13.08
2022-10-18T02:11:42.112Z,9.77
2022-10-18T02:12:42.447Z,10.57
2022-10-18T02:13:48.228Z,9.12
2022-10-18T02:14:46.319Z,9.25
2022-10-18T02:15:47.116Z,9.88
2022-10-18T02:16:47.986Z,9.94
2022-10-18T02:17:48.905Z,9.93
2022-10-18T02:18:51.439Z,9.49
2022-10-18T02:19:52.772Z,9.64
2022-10-18T02:20:51.883Z,9.01
2022-10-18T02:21:50.253Z,8.63
2022-10-18T02:22:50.467Z,8.53
2022-10-18T02:23:48.994Z,8.26
2022-10-18T02:24:50.773Z,8.18
2022-10-18T02:25:48.304Z,8.03
2022-10-18T02:26:45.648Z,8.57
2022-10-18T02:27:43.040Z,7.89
2022-10-18T02:28:41.297Z,8.08
2022-10-18T02:29:39.570Z,8.29
2022-10-18T02:30:57.103Z,11.50
2022-10-18T02:32:00.034Z,24.18
2022-10-18T02:33:03.189Z,24.56
2022-10-18T02:34:12.759Z,21.00
2022-10-18T02:35:29.368Z,18.42
2022-10-18T02:36:45.344Z,18.95
2022-10-18T02:37:43.324Z,15.63
2022-10-18T02:38:42.352Z,12.21
2022-10-18T02:39:44.124Z,10.20
2022-10-18T02:40:41.462Z,9.66
2022-10-18T02:41:38.886Z,9.63
2022-10-18T02:42:44.221Z,9.01
2022-10-18T02:43:43.210Z,8.79
2022-10-18T02:44:41.352Z,8.37
2022-10-18T02:45:39.029Z,8.36
2022-10-18T02:46:36.919Z,8.17
2022-10-18T02:47:34.475Z,8.36
2022-10-18T02:48:32.086Z,7.37
2022-10-18T02:49:29.472Z,7.43
2022-10-18T02:50:26.792Z,8.00
2022-10-18T02:51:24.879Z,8.16
2022-10-18T02:52:22.195Z,7.73
2022-10-18T02:53:19.494Z,8.08
2022-10-18T02:54:16.820Z,8.09
2022-10-18T02:55:14.181Z,7.43
2022-10-18T02:56:11.507Z,8.05
2022-10-18T02:57:09.448Z,7.71
2022-10-18T02:58:06.772Z,6.78
2022-10-18T02:59:05.645Z,7.34
2022-10-18T03:00:04.001Z,8.01
2022-10-18T03:01:01.279Z,8.11
2022-10-18T03:01:58.575Z,7.78
2022-10-18T03:02:55.900Z,7.82
2022-10-18T03:03:53.410Z,7.49
2022-10-18T03:04:50.685Z,7.22
2022-10-18T03:05:51.649Z,7.17
2022-10-18T03:06:49.115Z,7.85
2022-10-18T03:07:46.631Z,7.55
2022-10-18T03:08:43.966Z,7.82
2022-10-18T03:09:41.350Z,8.80
2022-10-18T03:10:38.636Z,19.02
2022-10-18T03:11:35.931Z,27.60
2022-10-18T03:12:33.499Z,16.49
2022-10-18T03:13:31.023Z,18.96
2022-10-18T03:14:28.369Z,15.52
2022-10-18T03:15:25.748Z,11.66
2022-10-18T03:16:23.162Z,8.63
2022-10-18T03:17:20.545Z,7.85
2022-10-18T03:18:17.963Z,7.30
2022-10-18T03:19:15.374Z,6.98
2022-10-18T03:20:13.921Z,8.10
2022-10-18T03:21:11.218Z,7.48
2022-10-18T03:22:08.512Z,7.32
2022-10-18T03:23:07.197Z,7.38
2022-10-18T03:24:04.738Z,7.93
2022-10-18T03:25:02.023Z,7.86
2022-10-18T03:25:59.357Z,7.70
2022-10-18T03:26:56.676Z,7.78
2022-10-18T03:27:53.990Z,7.85
2022-10-18T03:28:51.373Z,7.82
2022-10-18T03:29:48.728Z,7.79
2022-10-18T03:30:46.057Z,7.41
2022-10-18T03:31:43.380Z,7.83
2022-10-18T03:32:41.139Z,7.96
2022-10-18T03:33:38.469Z,7.50
2022-10-18T03:34:35.765Z,7.53
2022-10-18T03:35:33.173Z,7.71
2022-10-18T03:36:30.513Z,7.32
2022-10-18T03:37:27.889Z,7.77
2022-10-18T03:38:25.221Z,7.24
2022-10-18T03:39:22.538Z,7.38
2022-10-18T03:40:20.806Z,8.01
2022-10-18T03:41:18.167Z,7.65
2022-10-18T03:42:15.501Z,8.22
2022-10-18T03:43:12.858Z,7.55
2022-10-18T03:44:10.153Z,7.48
2022-10-18T03:45:07.789Z,7.16
2022-10-18T03:46:05.269Z,7.90
2022-10-18T03:47:02.612Z,7.43
2022-10-18T03:47:59.925Z,7.42
2022-10-18T03:48:57.266Z,7.35
2022-10-18T03:49:57.048Z,7.37
2022-10-18T03:50:54.888Z,7.50
2022-10-18T03:51:52.213Z,7.84
2022-10-18T03:52:49.498Z,7.98
2022-10-18T03:53:46.788Z,7.79
2022-10-18T03:54:44.088Z,7.70
2022-10-18T03:55:41.364Z,8.29
2022-10-18T03:56:38.662Z,7.96
2022-10-18T03:57:36.054Z,7.33
2022-10-18T03:59:31.788Z,7.99
2022-10-18T04:00:29.100Z,7.96
2022-10-18T04:01:26.462Z,7.59
2022-10-18T04:02:23.912Z,7.38
2022-10-18T04:03:22.245Z,7.22
2022-10-18T04:04:22.168Z,7.49
2022-10-18T04:05:19.474Z,7.37
2022-10-18T04:06:16.807Z,7.15
2022-10-18T04:07:14.107Z,7.65
2022-10-18T04:08:11.749Z,7.69
2022-10-18T04:09:10.290Z,8.15
2022-10-18T04:10:08.141Z,7.58
2022-10-18T04:11:11.206Z,7.57
2022-10-18T04:12:08.560Z,7.53
2022-10-18T04:13:06.305Z,7.65
2022-10-18T04:14:03.854Z,8.03
2022-10-18T04:15:01.218Z,7.93
2022-10-18T04:15:58.617Z,7.77
2022-10-18T04:16:55.941Z,8.09
2022-10-18T04:17:53.240Z,8.22
2022-10-18T04:18:50.561Z,8.06
2022-10-18T04:19:47.858Z,8.23
2022-10-18T04:20:45.133Z,7.85
2022-10-18T04:21:42.429Z,8.39
2022-10-18T04:22:39.722Z,8.51
2022-10-18T04:23:38.844Z,8.11
2022-10-18T04:24:36.333Z,7.78
2022-10-18T04:25:33.702Z,8.40
2022-10-18T04:26:31.064Z,8.75
2022-10-18T04:27:28.416Z,7.86
2022-10-18T04:28:25.773Z,7.89
2022-10-18T04:29:23.112Z,8.50
2022-10-18T04:30:20.433Z,8.74
2022-10-18T04:31:17.738Z,8.53
2022-10-18T04:32:15.049Z,8.85
2022-10-18T04:33:12.384Z,8.58
2022-10-18T04:34:10.261Z,8.50
2022-10-18T04:35:07.750Z,8.11
2022-10-18T04:36:05.342Z,8.68
2022-10-18T04:37:02.649Z,8.96
2022-10-18T04:38:00.095Z,8.41
2022-10-18T04:38:57.554Z,8.66
2022-10-18T04:39:54.835Z,8.14
2022-10-18T04:40:52.155Z,7.14
2022-10-18T04:41:49.528Z,7.88
2022-10-18T04:42:46.961Z,7.87
2022-10-18T04:44:46.496Z,7.86
2022-10-18T04:45:46.796Z,7.46
2022-10-18T04:46:44.187Z,8.18
2022-10-18T04:47:41.464Z,8.11
2022-10-18T04:48:38.906Z,7.87
2022-10-18T04:49:36.398Z,8.26
2022-10-18T04:50:33.733Z,8.12
2022-10-18T04:51:31.302Z,8.58
2022-10-18T04:52:28.610Z,7.78
2022-10-18T04:53:25.907Z,8.40
2022-10-18T04:54:25.195Z,8.22
2022-10-18T04:55:25.219Z,8.85
2022-10-18T04:56:22.583Z,8.52
2022-10-18T04:57:20.033Z,8.79
2022-10-18T04:58:18.021Z,10.31
2022-10-18T04:59:15.331Z,12.89
2022-10-18T05:00:13.009Z,12.07
2022-10-18T05:01:10.399Z,11.30
2022-10-18T05:02:07.686Z,10.82
2022-10-18T05:03:05.099Z,10.15
2022-10-18T05:04:02.385Z,9.23
2022-10-18T05:04:59.674Z,10.71
2022-10-18T05:06:01.628Z,11.69
2022-10-18T05:06:59.872Z,12.41
2022-10-18T05:07:57.179Z,10.99
2022-10-18T05:08:54.496Z,9.88
2022-10-18T05:09:51.824Z,9.72
2022-10-18T05:10:49.167Z,8.47
2022-10-18T05:11:46.494Z,7.72
2022-10-18T05:12:43.935Z,7.69
2022-10-18T05:13:41.232Z,7.36
2022-10-18T05:14:38.505Z,7.88
2022-10-18T05:15:35.876Z,7.50
2022-10-18T05:16:33.232Z,8.28
2022-10-18T05:17:30.584Z,7.62
2022-10-18T05:18:27.947Z,7.01
2022-10-18T05:19:25.265Z,7.59
2022-10-18T05:20:22.811Z,7.07
2022-10-18T05:21:20.244Z,7.21
2022-10-18T05:22:17.618Z,6.75
2022-10-18T05:23:14.931Z,7.04
2022-10-18T05:24:12.860Z,7.00
2022-10-18T05:25:10.420Z,7.21
2022-10-18T05:26:08.647Z,7.11
2022-10-18T05:27:05.933Z,7.02
2022-10-18T05:28:10.546Z,7.12
2022-10-18T05:29:08.505Z,6.23
2022-10-18T05:30:06.270Z,6.47
2022-10-18T05:31:07.321Z,6.55
2022-10-18T05:32:04.822Z,6.25
2022-10-18T05:33:02.113Z,6.37
2022-10-18T05:33:59.411Z,6.73
2022-10-18T05:34:56.808Z,6.70
2022-10-18T05:35:54.228Z,7.13
2022-10-18T05:36:51.553Z,6.78
2022-10-18T05:37:48.875Z,6.52
2022-10-18T05:38:47.930Z,6.84
2022-10-18T05:39:45.267Z,8.05
2022-10-18T05:40:42.575Z,7.54
2022-10-18T05:41:39.897Z,7.13
2022-10-18T05:42:37.201Z,7.50
2022-10-18T05:43:34.524Z,7.19
2022-10-18T05:44:32.539Z,6.84
2022-10-18T05:45:29.850Z,7.53
2022-10-18T05:46:27.128Z,7.96
2022-10-18T05:47:24.498Z,7.82
2022-10-18T05:48:21.879Z,7.39
2022-10-18T05:49:19.731Z,6.60
2022-10-18T05:50:17.100Z,7.12
2022-10-18T05:51:14.382Z,6.80
2022-10-18T05:52:11.774Z,7.04
2022-10-18T05:53:12.399Z,6.99
2022-10-18T05:54:21.963Z,7.02
2022-10-18T05:55:19.277Z,6.89
2022-10-18T05:56:16.629Z,6.73
2022-10-18T05:57:13.910Z,7.23
2022-10-18T05:58:11.252Z,6.57
2022-10-18T05:59:13.005Z,6.43
2022-10-18T06:00:11.438Z,6.92
2022-10-18T06:01:10.391Z,6.63
2022-10-18T06:02:09.723Z,7.01
2022-10-18T06:03:07.104Z,7.02
2022-10-18T06:04:05.089Z,6.69
2022-10-18T06:05:02.433Z,6.75
2022-10-18T06:06:10.236Z,6.99
2022-10-18T06:07:11.447Z,6.72
2022-10-18T06:08:10.317Z,5.89
2022-10-18T06:09:08.443Z,6.08
2022-10-18T06:10:06.051Z,6.22
2022-10-18T06:11:11.087Z,6.32
2022-10-18T06:12:09.131Z,6.42
2022-10-18T06:13:06.431Z,6.84
2022-10-18T06:14:04.398Z,6.97
2022-10-18T06:15:01.753Z,7.13
2022-10-18T06:15:59.061Z,6.83
2022-10-18T06:16:56.800Z,6.98
2022-10-18T06:17:54.706Z,6.85
2022-10-18T06:18:53.530Z,6.72
2022-10-18T06:19:50.840Z,6.51
2022-10-18T06:20:48.269Z,6.65
2022-10-18T06:21:45.881Z,6.44
2022-10-18T06:22:43.256Z,6.56
2022-10-18T06:23:40.649Z,6.32
2022-10-18T06:24:38.007Z,6.51
2022-10-18T06:25:35.362Z,6.67
2022-10-18T06:26:32.676Z,7.00
2022-10-18T06:27:31.954Z,7.35
2022-10-18T06:28:30.218Z,7.11
2022-10-18T06:29:27.583Z,7.25
2022-10-18T06:30:24.938Z,7.62
2022-10-18T06:31:22.601Z,7.61
2022-10-18T06:32:20.170Z,7.27
2022-10-18T06:33:17.567Z,7.34
2022-10-18T06:34:14.935Z,7.15
2022-10-18T06:35:13.790Z,7.40
2022-10-18T06:36:13.476Z,7.01
2022-10-18T06:37:10.765Z,7.35
2022-10-18T06:38:08.070Z,7.22
2022-10-18T06:39:05.441Z,7.40
2022-10-18T06:40:02.851Z,6.87
2022-10-18T06:41:00.241Z,6.88
2022-10-18T06:41:57.574Z,7.09
2022-10-18T06:43:00.571Z,7.38
2022-10-18T06:44:13.304Z,6.92
2022-10-18T06:45:10.776Z,7.87
2022-10-18T06:46:08.514Z,7.38
2022-10-18T06:47:07.809Z,7.39
2022-10-18T06:48:05.451Z,7.74
2022-10-18T06:49:02.882Z,7.43
2022-10-18T06:50:00.228Z,7.37
2022-10-18T06:50:59.369Z,7.82
2022-10-18T06:51:56.711Z,7.68
2022-10-18T06:52:54.003Z,7.74
2022-10-18T06:54:06.092Z,7.46
2022-10-18T06:55:09.246Z,7.66
2022-10-18T06:56:13.298Z,7.42
2022-10-18T06:57:10.573Z,7.21
2022-10-18T06:58:07.985Z,7.93
2022-10-18T06:59:05.366Z,8.27
2022-10-18T07:00:04.257Z,8.38
2022-10-18T07:01:12.112Z,8.10
2022-10-18T07:02:14.620Z,8.44
2022-10-18T07:03:12.474Z,8.60
2022-10-18T07:04:09.754Z,8.03
2022-10-18T07:05:07.622Z,8.06
2022-10-18T07:06:06.210Z,8.37
2022-10-18T07:07:03.529Z,8.24
2022-10-18T07:08:01.217Z,7.80
2022-10-18T07:08:58.683Z,8.17
2022-10-18T07:09:57.258Z,8.00
2022-10-18T07:10:54.630Z,8.13
2022-10-18T07:11:52.933Z,8.18
2022-10-18T07:12:51.562Z,7.44
2022-10-18T07:13:51.484Z,7.86
2022-10-18T07:14:48.825Z,7.59
2022-10-18T07:15:46.584Z,7.28
2022-10-18T07:16:43.922Z,7.27
2022-10-18T07:17:41.862Z,7.42
2022-10-18T07:18:40.871Z,31.22
2022-10-18T07:19:38.174Z,10.30
2022-10-18T07:20:35.553Z,7.62
2022-10-18T07:21:32.880Z,7.60
2022-10-18T07:22:30.549Z,7.84
2022-10-18T07:23:27.865Z,7.42
2022-10-18T07:24:25.332Z,7.51
2022-10-18T07:25:24.818Z,8.65
2022-10-18T07:26:29.287Z,8.79
2022-10-18T07:27:26.583Z,9.44
2022-10-18T07:28:23.881Z,9.91
2022-10-18T07:29:21.258Z,10.11
2022-10-18T07:30:18.621Z,8.91
2022-10-18T07:31:16.166Z,10.03
2022-10-18T07:32:14.348Z,10.32
2022-10-18T07:33:11.844Z,10.04
2022-10-18T07:34:11.906Z,10.63
2022-10-18T07:35:09.297Z,9.67
2022-10-18T07:36:08.305Z,9.93
2022-10-18T07:37:05.684Z,10.65
2022-10-18T07:38:02.972Z,11.32
2022-10-18T07:39:00.343Z,10.55
2022-10-18T07:39:57.714Z,11.04
2022-10-18T07:40:59.129Z,9.95
2022-10-18T07:41:56.514Z,10.89
2022-10-18T07:42:53.859Z,11.91
2022-10-18T07:43:52.626Z,11.34
2022-10-18T07:44:49.933Z,10.80
2022-10-18T07:45:53.850Z,10.68
2022-10-18T07:46:51.231Z,10.80
2022-10-18T07:47:48.605Z,10.40
2022-10-18T07:48:45.978Z,9.08
2022-10-18T07:49:43.375Z,9.28
2022-10-18T07:50:40.678Z,9.68
2022-10-18T07:51:38.157Z,9.10
2022-10-18T07:52:35.472Z,9.94
2022-10-18T07:53:34.648Z,10.07
2022-10-18T07:54:32.060Z,9.71
2022-10-18T07:55:29.379Z,10.28
2022-10-18T07:56:26.904Z,9.56
2022-10-18T07:57:24.209Z,9.60
2022-10-18T07:58:21.636Z,9.78
2022-10-18T07:59:18.976Z,9.88
2022-10-18T08:00:16.343Z,9.80
2022-10-18T08:01:14.659Z,9.99
2022-10-18T08:02:11.985Z,9.65
2022-10-18T08:03:09.409Z,10.13
2022-10-18T08:04:08.465Z,9.96
2022-10-18T08:05:08.084Z,10.52
2022-10-18T08:06:08.121Z,9.51
2022-10-18T08:07:06.344Z,10.02
2022-10-18T08:08:05.748Z,10.25
2022-10-18T08:09:05.480Z,10.89
2022-10-18T08:10:03.338Z,10.06
2022-10-18T08:11:05.240Z,10.85
2022-10-18T08:12:02.562Z,10.30
2022-10-18T08:12:59.846Z,10.26
2022-10-18T08:13:57.140Z,10.56
2022-10-18T08:14:54.500Z,11.36
2022-10-18T08:15:51.803Z,10.95
2022-10-18T08:16:49.316Z,10.79
2022-10-18T08:17:46.647Z,10.84
2022-10-18T08:18:44.576Z,11.83
2022-10-18T08:19:52.723Z,12.04
2022-10-18T08:20:59.972Z,10.91
2022-10-18T08:21:57.276Z,11.58
2022-10-18T08:22:59.088Z,11.79
2022-10-18T08:23:57.414Z,11.94
2022-10-18T08:24:54.782Z,11.67
2022-10-18T08:25:52.277Z,12.28
2022-10-18T08:26:49.831Z,11.10
2022-10-18T08:27:47.148Z,12.63
2022-10-18T08:28:53.604Z,12.42
2022-10-18T08:29:55.866Z,11.60
2022-10-18T08:30:53.221Z,11.46
2022-10-18T08:31:51.022Z,11.10
2022-10-18T08:32:48.347Z,10.94
2022-10-18T08:33:46.577Z,11.28
2022-10-18T08:34:43.928Z,10.76
2022-10-18T08:35:41.215Z,11.20
2022-10-18T08:36:38.513Z,10.87
2022-10-18T08:37:35.885Z,10.65
2022-10-18T08:38:37.310Z,10.70
2022-10-18T08:39:34.722Z,10.19
2022-10-18T08:40:42.820Z,9.49
2022-10-18T08:41:58.413Z,8.95
2022-10-18T08:43:17.023Z,8.98
2022-10-18T08:44:26.744Z,9.06
2022-10-18T08:45:37.781Z,8.45
2022-10-18T08:46:42.514Z,9.09
2022-10-18T08:47:42.563Z,8.75
2022-10-18T08:48:53.100Z,8.34
2022-10-18T08:49:57.463Z,7.77
2022-10-18T08:50:56.416Z,8.11
2022-10-18T08:51:53.916Z,8.77
2022-10-18T08:53:07.672Z,8.59
2022-10-18T08:54:13.777Z,8.11
2022-10-18T08:55:37.428Z,8.01
2022-10-18T08:56:35.005Z,7.38
2022-10-18T08:57:33.286Z,7.90
2022-10-18T08:58:33.347Z,8.48
2022-10-18T08:59:34.834Z,8.33
2022-10-18T09:00:37.740Z,7.67
2022-10-18T09:01:56.693Z,7.59
2022-10-18T09:03:12.845Z,7.54
2022-10-18T09:04:21.745Z,7.41
2022-10-18T09:05:34.229Z,7.57
2022-10-18T09:06:34.297Z,8.10
2022-10-18T09:07:51.709Z,7.44
2022-10-18T09:08:57.097Z,7.51
2022-10-18T09:09:54.410Z,6.80
2022-10-18T09:11:03.758Z,6.64
2022-10-18T09:12:03.870Z,7.44
2022-10-18T09:13:16.799Z,7.38
2022-10-18T09:14:32.959Z,7.18
2022-10-18T09:15:48.783Z,7.52
2022-10-18T09:16:57.552Z,7.56
2022-10-18T09:18:09.940Z,7.65
2022-10-18T09:19:27.494Z,7.59
2022-10-18T09:20:26.455Z,7.17
2022-10-18T09:21:42.384Z,7.96
2022-10-18T09:22:53.367Z,7.75
2022-10-18T09:24:00.126Z,7.03
2022-10-18T09:25:15.678Z,8.20
2022-10-18T09:26:21.150Z,7.81
2022-10-18T09:27:20.613Z,7.55
2022-10-18T09:28:30.666Z,7.10
2022-10-18T09:29:40.088Z,7.27
2022-10-18T09:30:37.434Z,6.56
2022-10-18T09:31:46.594Z,6.52
2022-10-18T09:33:01.996Z,6.86
2022-10-18T09:33:59.304Z,6.90
2022-10-18T09:35:15.176Z,6.58
2022-10-18T09:36:24.201Z,6.48
2022-10-18T09:37:24.462Z,5.83
2022-10-18T09:39:33.262Z,5.68
2022-10-18T09:40:36.070Z,5.81
2022-10-18T09:41:36.203Z,6.24
2022-10-18T09:42:40.622Z,5.67
2022-10-18T09:43:37.977Z,5.64
2022-10-18T09:44:38.806Z,6.18
2022-10-18T09:45:38.865Z,6.72
2022-10-18T09:46:47.808Z,6.10
2022-10-18T09:48:02.016Z,6.84
2022-10-18T09:49:05.974Z,6.37
2022-10-18T09:50:29.308Z,6.29
2022-10-18T09:51:30.827Z,6.27
2022-10-18T09:52:37.347Z,6.23
2022-10-18T09:53:53.000Z,6.19
2022-10-18T09:54:55.468Z,6.21
2022-10-18T09:56:13.005Z,5.85
2022-10-18T09:57:15.173Z,6.01
2022-10-18T09:58:14.226Z,5.39
2022-10-18T09:59:34.523Z,5.58
2022-10-18T10:00:34.965Z,5.60
2022-10-18T10:01:33.620Z,5.53
2022-10-18T10:02:30.985Z,5.17
2022-10-18T10:03:28.809Z,5.38
2022-10-18T10:04:26.132Z,4.94
2022-10-18T10:05:23.402Z,5.07
2022-10-18T10:06:24.345Z,4.66
2022-10-18T10:07:28.734Z,4.40
2022-10-18T10:08:34.753Z,4.69
2022-10-18T10:09:40.772Z,4.89
2022-10-18T10:10:46.582Z,4.72
2022-10-18T10:11:48.195Z,4.82
2022-10-18T10:12:46.082Z,4.26
2022-10-18T10:13:43.355Z,4.54
2022-10-18T10:14:44.231Z,4.57
2022-10-18T10:15:46.556Z,4.97
2022-10-18T10:16:49.858Z,4.53
2022-10-18T10:17:56.090Z,4.41
2022-10-18T10:18:54.389Z,4.15
2022-10-18T10:19:54.381Z,4.16
2022-10-18T10:20:54.225Z,4.19
2022-10-18T10:21:54.818Z,3.90
2022-10-18T10:22:52.863Z,3.93
2022-10-18T10:23:55.281Z,3.99
2022-10-18T10:24:54.664Z,4.05
2022-10-18T10:25:53.719Z,4.48
2022-10-18T10:26:51.616Z,4.35
2022-10-18T10:27:49.734Z,4.42
2022-10-18T10:28:49.029Z,4.11
2022-10-18T10:29:46.655Z,4.34
2022-10-18T10:30:44.089Z,3.96
2022-10-18T10:31:41.456Z,3.76
2022-10-18T10:32:47.347Z,4.04
2022-10-18T10:33:47.821Z,3.87
2022-10-18T10:34:45.493Z,4.01
2022-10-18T10:35:53.061Z,4.64
2022-10-18T10:36:53.312Z,3.82
2022-10-18T10:37:52.194Z,3.72
2022-10-18T10:39:06.476Z,4.21
2022-10-18T10:40:19.907Z,4.15
2022-10-18T10:41:21.204Z,3.94
2022-10-18T10:42:18.612Z,3.77
2022-10-18T10:43:32.920Z,3.92
2022-10-18T10:44:36.941Z,3.98
2022-10-18T10:45:37.080Z,3.59
2022-10-18T10:46:36.582Z,3.81
2022-10-18T10:47:36.920Z,3.64
2022-10-18T10:48:40.901Z,3.24
2022-10-18T10:49:41.018Z,3.37
2022-10-18T10:50:55.247Z,2.98
2022-10-18T10:52:08.678Z,3.12
2022-10-18T10:53:21.678Z,3.01
2022-10-18T10:54:22.633Z,2.85
2022-10-18T10:55:34.514Z,2.89
2022-10-18T10:56:35.974Z,2.90
2022-10-18T10:57:33.339Z,3.01
2022-10-18T10:58:35.956Z,3.26
2022-10-18T10:59:44.991Z,3.14
2022-10-18T11:00:44.496Z,3.36
2022-10-18T11:01:41.985Z,3.14
2022-10-18T11:02:39.631Z,2.93
2022-10-18T11:03:37.091Z,3.23
2022-10-18T11:04:34.639Z,3.36
2022-10-18T11:05:43.220Z,3.11
2022-10-18T11:06:46.311Z,2.97
2022-10-18T11:07:46.562Z,3.09
2022-10-18T11:09:41.362Z,3.10
2022-10-18T11:10:58.899Z,2.94
2022-10-18T11:12:22.424Z,3.03
2022-10-18T11:13:23.714Z,2.79
2022-10-18T11:14:30.215Z,2.74
2022-10-18T11:15:36.472Z,2.93
2022-10-18T11:16:39.459Z,3.03
2022-10-18T11:17:39.534Z,2.82
2022-10-18T11:18:37.953Z,3.22
2022-10-18T11:19:47.261Z,3.17
2022-10-18T11:20:51.037Z,2.96
2022-10-18T11:21:49.177Z,2.88
2022-10-18T11:22:58.213Z,3.33
2022-10-18T11:23:57.233Z,3.27
2022-10-18T11:24:55.114Z,3.06
2022-10-18T11:26:11.552Z,3.02
2022-10-18T11:27:08.809Z,2.87
2022-10-18T11:28:13.725Z,2.56
2022-10-18T11:29:23.911Z,2.88
2022-10-18T11:30:39.870Z,2.64
2022-10-18T11:32:12.540Z,2.76
2022-10-18T11:33:50.143Z,2.35
2022-10-18T11:34:57.627Z,2.62
2022-10-18T11:36:04.707Z,2.49
2022-10-18T11:37:29.145Z,2.62
2022-10-18T11:38:53.385Z,2.71
2022-10-18T11:40:09.356Z,2.62
2022-10-18T11:41:15.947Z,2.71
2022-10-18T11:42:13.231Z,2.55
2022-10-18T11:43:30.128Z,2.48
2022-10-18T11:44:44.377Z,2.69
2022-10-18T11:45:59.918Z,2.66
2022-10-18T11:47:13.416Z,2.27
2022-10-18T11:48:16.427Z,2.34
2022-10-18T11:49:28.164Z,2.32
2022-10-18T11:50:42.340Z,2.17
2022-10-18T11:52:09.394Z,2.45
2022-10-18T11:53:20.535Z,2.21
2022-10-18T11:54:17.847Z,2.10
2022-10-18T11:55:26.598Z,2.24
2022-10-18T11:56:29.134Z,2.38
2022-10-18T11:57:43.608Z,2.41
2022-10-18T11:58:46.799Z,2.61
2022-10-18T12:00:00.175Z,2.57
2022-10-18T12:01:06.536Z,2.27
2022-10-18T12:02:09.676Z,2.42
2022-10-18T12:03:15.146Z,2.39
2022-10-18T12:04:15.051Z,2.19
2022-10-18T12:05:29.751Z,2.47
2022-10-18T12:06:33.005Z,2.43
2022-10-18T12:07:56.162Z,2.39
2022-10-18T12:08:57.628Z,2.33
2022-10-18T12:09:56.217Z,2.13
2022-10-18T12:11:05.199Z,2.52
2022-10-18T12:12:09.995Z,2.58
2022-10-18T12:13:13.693Z,2.29
2022-10-18T12:14:34.132Z,2.55
2022-10-18T12:15:36.599Z,2.29
2022-10-18T12:16:51.112Z,2.17
2022-10-18T12:17:53.933Z,1.75
2022-10-18T12:18:56.621Z,1.85
2022-10-18T12:19:57.306Z,1.60
2022-10-18T12:20:57.002Z,1.82
2022-10-18T12:21:57.054Z,1.91
2022-10-18T12:23:12.504Z,1.98
2022-10-18T12:24:18.377Z,2.05
2022-10-18T12:25:18.169Z,2.14
2022-10-18T12:26:17.153Z,2.38
2022-10-18T12:27:16.517Z,2.10
2022-10-18T12:28:13.786Z,2.66
2022-10-18T12:29:23.125Z,2.48
2022-10-18T12:30:25.880Z,2.43
2022-10-18T12:31:55.205Z,3.06
2022-10-18T12:33:23.539Z,3.87
2022-10-18T12:34:23.487Z,2.73
2022-10-18T12:35:24.230Z,3.49
2022-10-18T12:36:21.498Z,2.44
2022-10-18T12:37:37.572Z,2.57
2022-10-18T12:38:38.476Z,3.55
2022-10-18T12:39:44.129Z,2.79
2022-10-18T12:40:55.996Z,2.01
2022-10-18T12:41:55.940Z,2.13
2022-10-18T12:42:53.791Z,2.55
2022-10-18T12:43:59.339Z,2.57
2022-10-18T12:45:16.980Z,2.17
2022-10-18T12:46:14.420Z,2.30
2022-10-18T12:47:21.723Z,1.78
2022-10-18T12:48:49.813Z,1.93
2022-10-18T12:50:01.915Z,2.21
2022-10-18T12:51:17.991Z,1.85
2022-10-18T12:52:25.501Z,1.79
2022-10-18T12:53:27.207Z,1.70
2022-10-18T12:54:32.510Z,1.78
2022-10-18T12:55:31.849Z,1.89
2022-10-18T12:56:29.185Z,2.39
2022-10-18T12:57:46.440Z,2.46
2022-10-18T12:58:43.761Z,2.16
2022-10-18T12:59:41.141Z,1.88
2022-10-18T13:00:38.399Z,1.94
2022-10-18T13:01:50.861Z,2.17
2022-10-18T13:03:08.233Z,1.79
2022-10-18T13:04:25.539Z,2.18
2022-10-18T13:05:52.862Z,1.89
2022-10-18T13:06:59.837Z,2.00
2022-10-18T13:08:17.097Z,1.80
2022-10-18T13:09:19.611Z,2.03
2022-10-18T13:10:17.837Z,1.60
2022-10-18T13:11:28.629Z,1.74
2022-10-18T13:12:28.695Z,1.78
2022-10-18T13:13:50.701Z,2.24
2022-10-18T13:15:27.003Z,2.34
2022-10-18T13:16:27.875Z,2.07
2022-10-18T13:17:37.316Z,2.25
2022-10-18T13:18:52.990Z,1.91
2022-10-18T13:20:20.446Z,1.91
2022-10-18T13:21:23.828Z,1.88
2022-10-18T13:22:30.587Z,2.00
2022-10-18T13:23:27.882Z,1.83
2022-10-18T13:24:40.156Z,2.04
2022-10-18T13:25:51.677Z,1.85
2022-10-18T13:26:54.145Z,1.66
2022-10-18T13:28:18.288Z,1.88
2022-10-18T13:29:24.407Z,2.11
2022-10-18T13:30:21.718Z,2.16
2022-10-18T13:31:19.038Z,2.25
2022-10-18T13:32:32.856Z,2.05
2022-10-18T13:33:32.945Z,2.26
2022-10-18T13:34:35.380Z,2.14
2022-10-18T13:35:38.491Z,2.22
2022-10-18T13:36:35.865Z,2.13
2022-10-18T13:37:33.302Z,2.04
2022-10-18T13:38:30.567Z,1.99
2022-10-18T13:39:29.146Z,1.87
2022-10-18T13:40:26.568Z,1.87
2022-10-18T13:41:47.049Z,1.98
2022-10-18T13:42:44.422Z,2.20